sensor_id;sensor_type;location;lat;lon;timestamp;temperature;humidity
32660;DHT22;19064;47.912;12.308;2024-01-30T00:01:58;0.40;99.90
32660;DHT22;19064;47.912;12.308;2024-01-30T00:04:25;0.40;99.90
32660;DHT22;19064;47.912;12.308;2024-01-30T00:06:52;0.40;99.90
32660;DHT22;19064;47.912;12.308;2024-01-30T00:09:20;0.40;99.90
32660;DHT22;19064;47.912;12.308;2024-01-30T00:11:47;0.30;99.90
32660;DHT22;19064;47.912;12.308;2024-01-30T00:14:14;0.20;99.90
32660;DHT22;19064;47.912;12.308;2024-01-30T00:16:40;0.20;99.90
32660;DHT22;19064;47.912;12.308;2024-01-30T00:19:07;0.20;99.90
32660;DHT22;19064;47.912;12.308;2024-01-30T00:21:34;0.20;99.90
32660;DHT22;19064;47.912;12.308;2024-01-30T00:24:01;0.20;99.90
32660;DHT22;19064;47.912;12.308;2024-01-30T00:26:29;0.30;99.90
32660;DHT22;19064;47.912;12.308;2024-01-30T00:28:55;0.30;99.90
32660;DHT22;19064;47.912;12.308;2024-01-30T00:31:22;0.30;99.90
32660;DHT22;19064;47.912;12.308;2024-01-30T00:33:49;0.30;99.90
32660;DHT22;19064;47.912;12.308;2024-01-30T00:36:16;0.30;99.90
32660;DHT22;19064;47.912;12.308;2024-01-30T00:38:42;0.30;99.90
32660;DHT22;19064;47.912;12.308;2024-01-30T00:41:09;0.20;99.90
32660;DHT22;19064;47.912;12.308;2024-01-30T00:43:37;0.30;99.90
32660;DHT22;19064;47.912;12.308;2024-01-30T00:46:04;0.20;99.90
32660;DHT22;19064;47.912;12.308;2024-01-30T00:48:31;0.20;99.90
32660;DHT22;19064;47.912;12.308;2024-01-30T00:50:57;0.20;99.90
32660;DHT22;19064;47.912;12.308;2024-01-30T00:53:24;0.20;99.90
32660;DHT22;19064;47.912;12.308;2024-01-30T00:55:51;0.30;99.90
32660;DHT22;19064;47.912;12.308;2024-01-30T00:58:18;0.50;99.90
32660;DHT22;19064;47.912;12.308;2024-01-30T01:00:46;0.70;99.90
32660;DHT22;19064;47.912;12.308;2024-01-30T01:03:13;0.70;99.90
32660;DHT22;19064;47.912;12.308;2024-01-30T01:05:40;0.70;99.90
32660;DHT22;19064;47.912;12.308;2024-01-30T01:08:07;0.50;99.90
32660;DHT22;19064;47.912;12.308;2024-01-30T01:10:34;0.50;99.90
32660;DHT22;19064;47.912;12.308;2024-01-30T01:13:01;0.40;99.90
32660;DHT22;19064;47.912;12.308;2024-01-30T01:15:27;0.40;99.90
32660;DHT22;19064;47.912;12.308;2024-01-30T01:17:56;0.30;99.90
32660;DHT22;19064;47.912;12.308;2024-01-30T01:20:22;0.30;99.90
32660;DHT22;19064;47.912;12.308;2024-01-30T01:22:49;0.30;99.90
32660;DHT22;19064;47.912;12.308;2024-01-30T01:25:16;0.10;99.90
32660;DHT22;19064;47.912;12.308;2024-01-30T01:27:42;0.30;99.90
32660;DHT22;19064;47.912;12.308;2024-01-30T01:30:16;0.50;99.90
32660;DHT22;19064;47.912;12.308;2024-01-30T01:32:47;0.60;99.90
32660;DHT22;19064;47.912;12.308;2024-01-30T01:35:21;0.60;99.90
32660;DHT22;19064;47.912;12.308;2024-01-30T01:37:49;0.60;99.90
32660;DHT22;19064;47.912;12.308;2024-01-30T01:40:20;0.80;99.90
32660;DHT22;19064;47.912;12.308;2024-01-30T01:42:47;0.90;99.90
32660;DHT22;19064;47.912;12.308;2024-01-30T01:45:14;0.90;99.90
32660;DHT22;19064;47.912;12.308;2024-01-30T01:47:41;1.00;99.90
32660;DHT22;19064;47.912;12.308;2024-01-30T01:50:08;1.20;99.90
32660;DHT22;19064;47.912;12.308;2024-01-30T01:52:37;1.10;99.90
32660;DHT22;19064;47.912;12.308;2024-01-30T01:55:06;1.10;99.90
32660;DHT22;19064;47.912;12.308;2024-01-30T01:57:33;1.00;99.90
32660;DHT22;19064;47.912;12.308;2024-01-30T02:00:00;0.90;99.90
32660;DHT22;19064;47.912;12.308;2024-01-30T02:02:30;0.80;99.90
32660;DHT22;19064;47.912;12.308;2024-01-30T02:05:01;0.70;99.90
32660;DHT22;19064;47.912;12.308;2024-01-30T02:07:28;0.60;99.90
32660;DHT22;19064;47.912;12.308;2024-01-30T02:09:56;0.60;99.90
32660;DHT22;19064;47.912;12.308;2024-01-30T02:12:23;0.50;99.90
32660;DHT22;19064;47.912;12.308;2024-01-30T02:14:50;0.60;99.90
32660;DHT22;19064;47.912;12.308;2024-01-30T02:17:17;0.60;99.90
32660;DHT22;19064;47.912;12.308;2024-01-30T02:19:44;0.70;99.90
32660;DHT22;19064;47.912;12.308;2024-01-30T02:22:13;0.60;99.90
32660;DHT22;19064;47.912;12.308;2024-01-30T02:24:39;0.60;99.90
32660;DHT22;19064;47.912;12.308;2024-01-30T02:27:06;0.60;99.90
32660;DHT22;19064;47.912;12.308;2024-01-30T02:29:33;0.60;99.90
32660;DHT22;19064;47.912;12.308;2024-01-30T02:32:00;0.60;99.90
32660;DHT22;19064;47.912;12.308;2024-01-30T02:34:26;0.60;99.90
32660;DHT22;19064;47.912;12.308;2024-01-30T02:36:53;0.50;99.90
32660;DHT22;19064;47.912;12.308;2024-01-30T02:39:21;0.50;99.90
32660;DHT22;19064;47.912;12.308;2024-01-30T02:41:48;0.40;99.90
32660;DHT22;19064;47.912;12.308;2024-01-30T02:44:15;0.20;99.90
32660;DHT22;19064;47.912;12.308;2024-01-30T02:46:41;0.10;99.90
32660;DHT22;19064;47.912;12.308;2024-01-30T02:49:08;0.20;99.90
32660;DHT22;19064;47.912;12.308;2024-01-30T02:51:35;0.00;99.90
32660;DHT22;19064;47.912;12.308;2024-01-30T02:54:01;-0.10;99.90
32660;DHT22;19064;47.912;12.308;2024-01-30T02:56:29;-0.10;99.90
32660;DHT22;19064;47.912;12.308;2024-01-30T02:58:56;-0.20;99.90
32660;DHT22;19064;47.912;12.308;2024-01-30T03:01:23;-0.30;99.90
32660;DHT22;19064;47.912;12.308;2024-01-30T03:03:50;-0.40;99.90
32660;DHT22;19064;47.912;12.308;2024-01-30T03:06:17;-0.40;99.90
32660;DHT22;19064;47.912;12.308;2024-01-30T03:08:45;-0.30;99.90
32660;DHT22;19064;47.912;12.308;2024-01-30T03:11:12;-0.10;99.90
32660;DHT22;19064;47.912;12.308;2024-01-30T03:13:40;0.00;99.90
32660;DHT22;19064;47.912;12.308;2024-01-30T03:16:08;-0.20;99.90
32660;DHT22;19064;47.912;12.308;2024-01-30T03:18:35;-0.10;99.90
32660;DHT22;19064;47.912;12.308;2024-01-30T03:21:02;-0.10;99.90
32660;DHT22;19064;47.912;12.308;2024-01-30T03:23:28;0.00;99.90
32660;DHT22;19064;47.912;12.308;2024-01-30T03:25:56;0.10;99.90
32660;DHT22;19064;47.912;12.308;2024-01-30T03:28:23;-0.10;99.90
32660;DHT22;19064;47.912;12.308;2024-01-30T03:30:51;-0.10;99.90
32660;DHT22;19064;47.912;12.308;2024-01-30T03:33:18;-0.10;99.90
32660;DHT22;19064;47.912;12.308;2024-01-30T03:35:44;-0.10;99.90
32660;DHT22;19064;47.912;12.308;2024-01-30T03:38:11;-0.20;99.90
32660;DHT22;19064;47.912;12.308;2024-01-30T03:40:38;-0.30;99.90
32660;DHT22;19064;47.912;12.308;2024-01-30T03:43:04;-0.40;99.90
32660;DHT22;19064;47.912;12.308;2024-01-30T03:45:31;-0.40;99.90
32660;DHT22;19064;47.912;12.308;2024-01-30T03:47:59;-0.40;99.90
32660;DHT22;19064;47.912;12.308;2024-01-30T03:50:26;-0.30;99.90
32660;DHT22;19064;47.912;12.308;2024-01-30T03:52:53;-0.30;99.90
32660;DHT22;19064;47.912;12.308;2024-01-30T03:55:20;-0.30;99.90
32660;DHT22;19064;47.912;12.308;2024-01-30T03:57:46;-0.30;99.90
32660;DHT22;19064;47.912;12.308;2024-01-30T04:00:14;-0.30;99.90
32660;DHT22;19064;47.912;12.308;2024-01-30T04:02:41;-0.40;99.90
32660;DHT22;19064;47.912;12.308;2024-01-30T04:05:09;-0.30;99.90
32660;DHT22;19064;47.912;12.308;2024-01-30T04:07:36;-0.20;99.90
32660;DHT22;19064;47.912;12.308;2024-01-30T04:10:03;-0.20;99.90
32660;DHT22;19064;47.912;12.308;2024-01-30T04:12:31;-0.20;99.90
32660;DHT22;19064;47.912;12.308;2024-01-30T04:14:57;-0.30;99.90
32660;DHT22;19064;47.912;12.308;2024-01-30T04:17:24;-0.30;99.90
32660;DHT22;19064;47.912;12.308;2024-01-30T04:19:51;-0.40;99.90
32660;DHT22;19064;47.912;12.308;2024-01-30T04:22:19;-0.40;99.90
32660;DHT22;19064;47.912;12.308;2024-01-30T04:24:46;-0.30;99.90
32660;DHT22;19064;47.912;12.308;2024-01-30T04:27:12;-0.40;99.90
32660;DHT22;19064;47.912;12.308;2024-01-30T04:29:39;-0.40;99.90
32660;DHT22;19064;47.912;12.308;2024-01-30T04:32:06;-0.40;99.90
32660;DHT22;19064;47.912;12.308;2024-01-30T04:34:32;-0.50;99.90
32660;DHT22;19064;47.912;12.308;2024-01-30T04:36:59;-0.50;99.90
32660;DHT22;19064;47.912;12.308;2024-01-30T04:39:27;-0.40;99.90
32660;DHT22;19064;47.912;12.308;2024-01-30T04:41:53;-0.50;99.90
32660;DHT22;19064;47.912;12.308;2024-01-30T04:44:20;-0.40;99.90
32660;DHT22;19064;47.912;12.308;2024-01-30T04:46:47;-0.50;99.90
32660;DHT22;19064;47.912;12.308;2024-01-30T04:49:13;-0.60;99.90
32660;DHT22;19064;47.912;12.308;2024-01-30T04:51:40;-0.60;99.90
32660;DHT22;19064;47.912;12.308;2024-01-30T04:54:07;-0.60;99.90
32660;DHT22;19064;47.912;12.308;2024-01-30T04:56:35;-0.50;99.90
32660;DHT22;19064;47.912;12.308;2024-01-30T04:59:02;-0.60;99.90
32660;DHT22;19064;47.912;12.308;2024-01-30T05:01:29;-0.50;99.90
32660;DHT22;19064;47.912;12.308;2024-01-30T05:03:55;-0.50;99.90
32660;DHT22;19064;47.912;12.308;2024-01-30T05:06:25;-0.50;99.90
32660;DHT22;19064;47.912;12.308;2024-01-30T05:08:52;-0.50;99.90
32660;DHT22;19064;47.912;12.308;2024-01-30T05:11:19;-0.50;99.90
32660;DHT22;19064;47.912;12.308;2024-01-30T05:13:47;-0.50;99.90
32660;DHT22;19064;47.912;12.308;2024-01-30T05:16:13;-0.60;99.90
32660;DHT22;19064;47.912;12.308;2024-01-30T05:18:40;-0.60;99.90
32660;DHT22;19064;47.912;12.308;2024-01-30T05:21:07;-0.60;99.90
32660;DHT22;19064;47.912;12.308;2024-01-30T05:23:33;-0.60;99.90
32660;DHT22;19064;47.912;12.308;2024-01-30T05:26:00;-0.60;99.90
32660;DHT22;19064;47.912;12.308;2024-01-30T05:28:28;-0.60;99.90
32660;DHT22;19064;47.912;12.308;2024-01-30T05:30:56;-0.50;99.90
32660;DHT22;19064;47.912;12.308;2024-01-30T05:33:23;-0.40;99.90
32660;DHT22;19064;47.912;12.308;2024-01-30T05:35:50;-0.50;99.90
32660;DHT22;19064;47.912;12.308;2024-01-30T05:38:19;-0.60;99.90
32660;DHT22;19064;47.912;12.308;2024-01-30T05:40:46;-0.70;99.90
32660;DHT22;19064;47.912;12.308;2024-01-30T05:43:13;-0.80;99.90
32660;DHT22;19064;47.912;12.308;2024-01-30T05:45:40;-0.80;99.90
32660;DHT22;19064;47.912;12.308;2024-01-30T05:48:08;-0.80;99.90
32660;DHT22;19064;47.912;12.308;2024-01-30T05:50:35;-0.60;99.90
32660;DHT22;19064;47.912;12.308;2024-01-30T05:53:01;-0.40;99.90
32660;DHT22;19064;47.912;12.308;2024-01-30T05:55:28;-0.40;99.90
32660;DHT22;19064;47.912;12.308;2024-01-30T05:57:55;-0.30;99.90
32660;DHT22;19064;47.912;12.308;2024-01-30T06:00:21;-0.10;99.90
32660;DHT22;19064;47.912;12.308;2024-01-30T06:02:48;-0.10;99.90
32660;DHT22;19064;47.912;12.308;2024-01-30T06:05:16;-0.20;99.90
32660;DHT22;19064;47.912;12.308;2024-01-30T06:07:43;0.00;99.90
32660;DHT22;19064;47.912;12.308;2024-01-30T06:10:09;0.10;99.90
32660;DHT22;19064;47.912;12.308;2024-01-30T06:12:37;0.20;99.90
32660;DHT22;19064;47.912;12.308;2024-01-30T06:15:05;0.30;99.90
32660;DHT22;19064;47.912;12.308;2024-01-30T06:17:32;0.30;99.90
32660;DHT22;19064;47.912;12.308;2024-01-30T06:19:59;0.30;99.90
32660;DHT22;19064;47.912;12.308;2024-01-30T06:22:27;0.40;99.90
32660;DHT22;19064;47.912;12.308;2024-01-30T06:24:53;0.60;99.90
32660;DHT22;19064;47.912;12.308;2024-01-30T06:27:20;0.60;99.90
32660;DHT22;19064;47.912;12.308;2024-01-30T06:29:47;0.80;99.90
32660;DHT22;19064;47.912;12.308;2024-01-30T06:32:13;1.00;99.90
32660;DHT22;19064;47.912;12.308;2024-01-30T06:34:41;1.00;99.90
32660;DHT22;19064;47.912;12.308;2024-01-30T06:37:09;1.00;99.90
32660;DHT22;19064;47.912;12.308;2024-01-30T06:39:37;1.10;99.90
32660;DHT22;19064;47.912;12.308;2024-01-30T06:42:04;1.00;99.90
32660;DHT22;19064;47.912;12.308;2024-01-30T06:44:31;1.00;99.90
32660;DHT22;19064;47.912;12.308;2024-01-30T06:46:58;1.10;99.90
32660;DHT22;19064;47.912;12.308;2024-01-30T06:49:25;1.10;99.90
32660;DHT22;19064;47.912;12.308;2024-01-30T06:51:51;0.90;99.90
32660;DHT22;19064;47.912;12.308;2024-01-30T06:54:18;0.60;99.90
32660;DHT22;19064;47.912;12.308;2024-01-30T06:56:46;0.50;99.90
32660;DHT22;19064;47.912;12.308;2024-01-30T06:59:13;0.50;99.90
32660;DHT22;19064;47.912;12.308;2024-01-30T07:01:40;0.60;99.90
32660;DHT22;19064;47.912;12.308;2024-01-30T07:04:06;0.70;99.90
32660;DHT22;19064;47.912;12.308;2024-01-30T07:06:33;0.80;99.90
32660;DHT22;19064;47.912;12.308;2024-01-30T07:09:00;0.80;99.90
32660;DHT22;19064;47.912;12.308;2024-01-30T07:11:26;0.70;99.90
32660;DHT22;19064;47.912;12.308;2024-01-30T07:13:55;0.50;99.90
32660;DHT22;19064;47.912;12.308;2024-01-30T07:16:22;0.50;99.90
32660;DHT22;19064;47.912;12.308;2024-01-30T07:18:49;0.30;99.90
32660;DHT22;19064;47.912;12.308;2024-01-30T07:21:15;0.20;99.90
32660;DHT22;19064;47.912;12.308;2024-01-30T07:23:42;0.20;99.90
32660;DHT22;19064;47.912;12.308;2024-01-30T07:26:09;0.40;99.90
32660;DHT22;19064;47.912;12.308;2024-01-30T07:28:36;0.60;99.90
32660;DHT22;19064;47.912;12.308;2024-01-30T07:31:05;0.70;99.90
32660;DHT22;19064;47.912;12.308;2024-01-30T07:33:32;1.00;99.90
32660;DHT22;19064;47.912;12.308;2024-01-30T07:35:58;2.50;99.90
32660;DHT22;19064;47.912;12.308;2024-01-30T07:38:25;4.20;99.90
32660;DHT22;19064;47.912;12.308;2024-01-30T07:40:52;5.70;99.90
32660;DHT22;19064;47.912;12.308;2024-01-30T07:43:19;6.70;99.90
32660;DHT22;19064;47.912;12.308;2024-01-30T07:45:46;7.10;99.90
32660;DHT22;19064;47.912;12.308;2024-01-30T07:48:14;7.40;99.90
32660;DHT22;19064;47.912;12.308;2024-01-30T07:50:41;7.10;99.90
32660;DHT22;19064;47.912;12.308;2024-01-30T07:53:08;6.20;99.90
32660;DHT22;19064;47.912;12.308;2024-01-30T07:55:34;5.80;99.90
32660;DHT22;19064;47.912;12.308;2024-01-30T07:58:01;5.70;99.90
32660;DHT22;19064;47.912;12.308;2024-01-30T08:00:30;6.10;99.90
32660;DHT22;19064;47.912;12.308;2024-01-30T08:02:56;7.30;99.90
32660;DHT22;19064;47.912;12.308;2024-01-30T08:05:25;8.30;99.90
32660;DHT22;19064;47.912;12.308;2024-01-30T08:07:52;9.20;99.90
32660;DHT22;19064;47.912;12.308;2024-01-30T08:10:20;9.50;99.90
32660;DHT22;19064;47.912;12.308;2024-01-30T08:12:47;8.90;99.90
32660;DHT22;19064;47.912;12.308;2024-01-30T08:15:13;9.50;99.90
32660;DHT22;19064;47.912;12.308;2024-01-30T08:17:40;9.10;99.90
32660;DHT22;19064;47.912;12.308;2024-01-30T08:20:07;8.00;99.90
32660;DHT22;19064;47.912;12.308;2024-01-30T08:22:38;6.60;99.90
32660;DHT22;19064;47.912;12.308;2024-01-30T08:25:06;5.50;99.90
32660;DHT22;19064;47.912;12.308;2024-01-30T08:27:33;4.80;99.90
32660;DHT22;19064;47.912;12.308;2024-01-30T08:30:00;4.40;99.90
32660;DHT22;19064;47.912;12.308;2024-01-30T08:32:27;4.20;99.90
32660;DHT22;19064;47.912;12.308;2024-01-30T08:34:54;4.20;99.90
32660;DHT22;19064;47.912;12.308;2024-01-30T08:37:21;3.90;99.90
32660;DHT22;19064;47.912;12.308;2024-01-30T08:39:49;4.10;99.90
32660;DHT22;19064;47.912;12.308;2024-01-30T08:42:15;5.30;99.90
32660;DHT22;19064;47.912;12.308;2024-01-30T08:44:44;6.10;99.90
32660;DHT22;19064;47.912;12.308;2024-01-30T08:47:10;6.80;99.90
32660;DHT22;19064;47.912;12.308;2024-01-30T08:49:37;7.30;99.90
32660;DHT22;19064;47.912;12.308;2024-01-30T08:52:04;8.20;99.90
32660;DHT22;19064;47.912;12.308;2024-01-30T08:54:31;8.60;99.90
32660;DHT22;19064;47.912;12.308;2024-01-30T08:57:01;8.60;99.90
32660;DHT22;19064;47.912;12.308;2024-01-30T08:59:27;9.00;99.90
32660;DHT22;19064;47.912;12.308;2024-01-30T09:01:54;8.90;99.90
32660;DHT22;19064;47.912;12.308;2024-01-30T09:04:23;9.20;99.90
32660;DHT22;19064;47.912;12.308;2024-01-30T09:06:50;9.20;99.90
32660;DHT22;19064;47.912;12.308;2024-01-30T09:09:17;9.40;99.90
32660;DHT22;19064;47.912;12.308;2024-01-30T09:11:44;9.80;99.90
32660;DHT22;19064;47.912;12.308;2024-01-30T09:14:12;9.70;99.90
32660;DHT22;19064;47.912;12.308;2024-01-30T09:16:39;9.70;99.90
32660;DHT22;19064;47.912;12.308;2024-01-30T09:19:06;9.90;99.90
32660;DHT22;19064;47.912;12.308;2024-01-30T09:21:33;9.70;99.90
32660;DHT22;19064;47.912;12.308;2024-01-30T09:24:02;9.60;99.90
32660;DHT22;19064;47.912;12.308;2024-01-30T09:26:29;10.00;99.90
32660;DHT22;19064;47.912;12.308;2024-01-30T09:28:56;9.90;99.90
32660;DHT22;19064;47.912;12.308;2024-01-30T09:31:24;9.40;99.90
32660;DHT22;19064;47.912;12.308;2024-01-30T09:33:51;8.50;99.90
32660;DHT22;19064;47.912;12.308;2024-01-30T09:36:19;7.80;99.90
32660;DHT22;19064;47.912;12.308;2024-01-30T09:38:46;7.30;99.90
32660;DHT22;19064;47.912;12.308;2024-01-30T09:41:12;6.80;99.90
32660;DHT22;19064;47.912;12.308;2024-01-30T09:43:39;6.50;99.90
32660;DHT22;19064;47.912;12.308;2024-01-30T09:46:09;6.40;99.90
32660;DHT22;19064;47.912;12.308;2024-01-30T09:48:40;6.20;99.90
32660;DHT22;19064;47.912;12.308;2024-01-30T09:51:08;6.30;99.90
32660;DHT22;19064;47.912;12.308;2024-01-30T09:53:36;6.50;99.90
32660;DHT22;19064;47.912;12.308;2024-01-30T09:56:04;6.50;99.90
32660;DHT22;19064;47.912;12.308;2024-01-30T09:58:31;6.60;99.90
32660;DHT22;19064;47.912;12.308;2024-01-30T10:00:58;6.60;99.90
32660;DHT22;19064;47.912;12.308;2024-01-30T10:03:25;6.40;99.90
32660;DHT22;19064;47.912;12.308;2024-01-30T10:05:55;6.30;99.90
32660;DHT22;19064;47.912;12.308;2024-01-30T10:08:22;6.20;99.90
32660;DHT22;19064;47.912;12.308;2024-01-30T10:10:49;6.00;99.90
32660;DHT22;19064;47.912;12.308;2024-01-30T10:13:16;6.00;99.90
32660;DHT22;19064;47.912;12.308;2024-01-30T10:15:43;6.00;99.90
32660;DHT22;19064;47.912;12.308;2024-01-30T10:18:10;6.00;99.90
32660;DHT22;19064;47.912;12.308;2024-01-30T10:20:37;6.00;99.90
32660;DHT22;19064;47.912;12.308;2024-01-30T10:23:06;6.00;99.90
32660;DHT22;19064;47.912;12.308;2024-01-30T10:25:33;6.00;99.90
32660;DHT22;19064;47.912;12.308;2024-01-30T10:28:00;5.90;99.90
32660;DHT22;19064;47.912;12.308;2024-01-30T10:30:27;6.00;99.90
32660;DHT22;19064;47.912;12.308;2024-01-30T10:32:54;6.00;99.90
32660;DHT22;19064;47.912;12.308;2024-01-30T10:35:21;6.10;99.90
32660;DHT22;19064;47.912;12.308;2024-01-30T10:37:48;6.10;99.90
32660;DHT22;19064;47.912;12.308;2024-01-30T10:40:16;6.20;99.90
32660;DHT22;19064;47.912;12.308;2024-01-30T10:42:44;6.20;99.90
32660;DHT22;19064;47.912;12.308;2024-01-30T10:45:11;6.20;99.90
32660;DHT22;19064;47.912;12.308;2024-01-30T10:47:40;6.30;99.90
32660;DHT22;19064;47.912;12.308;2024-01-30T10:50:08;6.30;99.90
32660;DHT22;19064;47.912;12.308;2024-01-30T10:52:36;6.40;99.90
32660;DHT22;19064;47.912;12.308;2024-01-30T10:55:04;6.40;99.90
32660;DHT22;19064;47.912;12.308;2024-01-30T10:57:34;6.40;99.90
32660;DHT22;19064;47.912;12.308;2024-01-30T11:00:02;6.60;99.90
32660;DHT22;19064;47.912;12.308;2024-01-30T11:02:31;6.70;99.90
32660;DHT22;19064;47.912;12.308;2024-01-30T11:04:59;6.80;99.90
32660;DHT22;19064;47.912;12.308;2024-01-30T11:07:28;6.80;99.90
32660;DHT22;19064;47.912;12.308;2024-01-30T11:10:00;6.80;99.90
32660;DHT22;19064;47.912;12.308;2024-01-30T11:12:29;6.90;99.90
32660;DHT22;19064;47.912;12.308;2024-01-30T11:15:05;6.90;99.90
32660;DHT22;19064;47.912;12.308;2024-01-30T11:17:42;6.90;99.90
32660;DHT22;19064;47.912;12.308;2024-01-30T11:20:14;7.00;99.90
32660;DHT22;19064;47.912;12.308;2024-01-30T11:22:42;7.10;99.90
32660;DHT22;19064;47.912;12.308;2024-01-30T11:25:14;7.20;99.90
32660;DHT22;19064;47.912;12.308;2024-01-30T11:27:42;7.20;99.90
32660;DHT22;19064;47.912;12.308;2024-01-30T11:30:10;7.30;99.90
32660;DHT22;19064;47.912;12.308;2024-01-30T11:32:37;7.40;99.90
32660;DHT22;19064;47.912;12.308;2024-01-30T11:35:05;7.40;99.90
32660;DHT22;19064;47.912;12.308;2024-01-30T11:37:37;7.50;99.90
32660;DHT22;19064;47.912;12.308;2024-01-30T11:40:05;7.60;99.90
32660;DHT22;19064;47.912;12.308;2024-01-30T11:42:32;7.60;99.90
32660;DHT22;19064;47.912;12.308;2024-01-30T11:45:00;7.80;99.90
32660;DHT22;19064;47.912;12.308;2024-01-30T11:47:30;7.90;99.90
32660;DHT22;19064;47.912;12.308;2024-01-30T11:49:57;7.90;99.90
32660;DHT22;19064;47.912;12.308;2024-01-30T11:52:24;8.00;99.90
32660;DHT22;19064;47.912;12.308;2024-01-30T11:54:50;8.10;99.90
32660;DHT22;19064;47.912;12.308;2024-01-30T11:57:17;8.30;99.90
32660;DHT22;19064;47.912;12.308;2024-01-30T11:59:44;8.30;99.90
32660;DHT22;19064;47.912;12.308;2024-01-30T12:02:15;8.40;99.90
32660;DHT22;19064;47.912;12.308;2024-01-30T12:04:44;8.50;99.90
32660;DHT22;19064;47.912;12.308;2024-01-30T12:07:11;8.50;99.90
32660;DHT22;19064;47.912;12.308;2024-01-30T12:09:38;8.60;99.90
32660;DHT22;19064;47.912;12.308;2024-01-30T12:12:07;8.60;99.90
32660;DHT22;19064;47.912;12.308;2024-01-30T12:14:37;8.70;99.90
32660;DHT22;19064;47.912;12.308;2024-01-30T12:17:04;8.80;99.90
32660;DHT22;19064;47.912;12.308;2024-01-30T12:19:33;8.80;99.90
32660;DHT22;19064;47.912;12.308;2024-01-30T12:22:01;8.80;99.90
32660;DHT22;19064;47.912;12.308;2024-01-30T12:24:28;8.80;99.90
32660;DHT22;19064;47.912;12.308;2024-01-30T12:26:57;8.90;99.90
32660;DHT22;19064;47.912;12.308;2024-01-30T12:29:24;8.90;99.90
32660;DHT22;19064;47.912;12.308;2024-01-30T12:31:53;9.00;99.90
32660;DHT22;19064;47.912;12.308;2024-01-30T12:34:20;9.10;99.90
32660;DHT22;19064;47.912;12.308;2024-01-30T12:36:47;9.10;99.90
32660;DHT22;19064;47.912;12.308;2024-01-30T12:39:15;9.20;99.90
32660;DHT22;19064;47.912;12.308;2024-01-30T12:41:42;9.20;99.90
32660;DHT22;19064;47.912;12.308;2024-01-30T12:44:09;9.20;99.90
32660;DHT22;19064;47.912;12.308;2024-01-30T12:46:35;9.40;99.90
32660;DHT22;19064;47.912;12.308;2024-01-30T12:49:02;9.40;99.90
32660;DHT22;19064;47.912;12.308;2024-01-30T12:51:29;9.40;99.90
32660;DHT22;19064;47.912;12.308;2024-01-30T12:53:56;9.50;99.90
32660;DHT22;19064;47.912;12.308;2024-01-30T12:56:24;9.60;99.90
32660;DHT22;19064;47.912;12.308;2024-01-30T12:58:51;9.60;99.90
32660;DHT22;19064;47.912;12.308;2024-01-30T13:01:18;9.70;99.90
32660;DHT22;19064;47.912;12.308;2024-01-30T13:03:44;9.70;99.90
32660;DHT22;19064;47.912;12.308;2024-01-30T13:06:11;9.60;99.90
32660;DHT22;19064;47.912;12.308;2024-01-30T13:08:38;9.70;99.90
32660;DHT22;19064;47.912;12.308;2024-01-30T13:11:05;9.70;99.90
32660;DHT22;19064;47.912;12.308;2024-01-30T13:13:33;9.70;99.90
32660;DHT22;19064;47.912;12.308;2024-01-30T13:16:01;9.70;99.90
32660;DHT22;19064;47.912;12.308;2024-01-30T13:18:28;9.70;99.90
32660;DHT22;19064;47.912;12.308;2024-01-30T13:20:54;9.80;99.90
32660;DHT22;19064;47.912;12.308;2024-01-30T13:23:21;9.90;99.90
32660;DHT22;19064;47.912;12.308;2024-01-30T13:25:48;9.90;99.90
32660;DHT22;19064;47.912;12.308;2024-01-30T13:28:14;9.90;99.90
32660;DHT22;19064;47.912;12.308;2024-01-30T13:30:43;9.90;99.90
32660;DHT22;19064;47.912;12.308;2024-01-30T13:33:09;10.00;99.90
32660;DHT22;19064;47.912;12.308;2024-01-30T13:35:36;9.90;99.90
32660;DHT22;19064;47.912;12.308;2024-01-30T13:38:03;9.90;99.90
32660;DHT22;19064;47.912;12.308;2024-01-30T13:40:30;9.90;99.90
32660;DHT22;19064;47.912;12.308;2024-01-30T13:42:57;9.90;99.90
32660;DHT22;19064;47.912;12.308;2024-01-30T13:45:23;9.80;99.90
32660;DHT22;19064;47.912;12.308;2024-01-30T13:47:51;9.80;99.90
32660;DHT22;19064;47.912;12.308;2024-01-30T13:50:18;9.80;99.90
32660;DHT22;19064;47.912;12.308;2024-01-30T13:52:45;9.80;99.90
32660;DHT22;19064;47.912;12.308;2024-01-30T13:55:12;9.80;99.90
32660;DHT22;19064;47.912;12.308;2024-01-30T13:57:39;9.80;99.90
32660;DHT22;19064;47.912;12.308;2024-01-30T14:00:07;9.80;99.90
32660;DHT22;19064;47.912;12.308;2024-01-30T14:02:34;9.70;99.90
32660;DHT22;19064;47.912;12.308;2024-01-30T14:05:02;9.70;99.90
32660;DHT22;19064;47.912;12.308;2024-01-30T14:07:31;9.70;99.90
32660;DHT22;19064;47.912;12.308;2024-01-30T14:09:58;9.80;99.90
32660;DHT22;19064;47.912;12.308;2024-01-30T14:12:25;9.70;99.90
32660;DHT22;19064;47.912;12.308;2024-01-30T14:14:51;9.70;99.90
32660;DHT22;19064;47.912;12.308;2024-01-30T14:17:18;9.70;99.90
32660;DHT22;19064;47.912;12.308;2024-01-30T14:19:45;9.70;99.90
32660;DHT22;19064;47.912;12.308;2024-01-30T14:22:13;9.70;99.90
32660;DHT22;19064;47.912;12.308;2024-01-30T14:24:39;9.70;99.90
32660;DHT22;19064;47.912;12.308;2024-01-30T14:27:06;9.70;99.90
32660;DHT22;19064;47.912;12.308;2024-01-30T14:29:33;9.50;99.90
32660;DHT22;19064;47.912;12.308;2024-01-30T14:32:00;9.60;99.90
32660;DHT22;19064;47.912;12.308;2024-01-30T14:34:27;9.60;99.90
32660;DHT22;19064;47.912;12.308;2024-01-30T14:36:53;9.50;99.90
32660;DHT22;19064;47.912;12.308;2024-01-30T14:39:22;9.50;99.90
32660;DHT22;19064;47.912;12.308;2024-01-30T14:41:49;9.50;99.90
32660;DHT22;19064;47.912;12.308;2024-01-30T14:44:15;9.50;99.90
32660;DHT22;19064;47.912;12.308;2024-01-30T14:46:42;9.30;99.90
32660;DHT22;19064;47.912;12.308;2024-01-30T14:49:09;9.20;99.90
32660;DHT22;19064;47.912;12.308;2024-01-30T14:51:36;9.10;99.90
32660;DHT22;19064;47.912;12.308;2024-01-30T14:54:03;9.00;99.90
32660;DHT22;19064;47.912;12.308;2024-01-30T14:56:31;9.00;99.90
32660;DHT22;19064;47.912;12.308;2024-01-30T14:58:58;9.00;99.90
32660;DHT22;19064;47.912;12.308;2024-01-30T15:01:25;9.00;99.90
32660;DHT22;19064;47.912;12.308;2024-01-30T15:03:52;9.00;99.90
32660;DHT22;19064;47.912;12.308;2024-01-30T15:06:18;8.90;99.90
32660;DHT22;19064;47.912;12.308;2024-01-30T15:08:48;8.90;99.90
32660;DHT22;19064;47.912;12.308;2024-01-30T15:11:14;9.00;99.90
32660;DHT22;19064;47.912;12.308;2024-01-30T15:13:43;9.10;99.90
32660;DHT22;19064;47.912;12.308;2024-01-30T15:16:09;9.10;99.90
32660;DHT22;19064;47.912;12.308;2024-01-30T15:18:36;9.20;99.90
32660;DHT22;19064;47.912;12.308;2024-01-30T15:21:04;9.20;99.90
32660;DHT22;19064;47.912;12.308;2024-01-30T15:23:30;9.20;99.90
32660;DHT22;19064;47.912;12.308;2024-01-30T15:25:57;9.20;99.90
32660;DHT22;19064;47.912;12.308;2024-01-30T15:28:34;9.10;99.90